createdAt,value
2022-12-18T00:01:33.018Z,32.88
2022-12-18T00:03:59.389Z,32.51
2022-12-18T00:06:25.723Z,32.95
2022-12-18T00:08:52.012Z,32.27
2022-12-18T00:11:18.284Z,32.37
2022-12-18T00:13:44.535Z,32.18
2022-12-18T00:16:10.890Z,32.44
2022-12-18T00:18:37.581Z,32.76
2022-12-18T00:21:04.048Z,32.66
2022-12-18T00:23:30.318Z,32.60
2022-12-18T00:25:56.580Z,32.00
2022-12-18T00:28:22.879Z,31.92
2022-12-18T00:30:49.144Z,32.52
2022-12-18T00:33:15.404Z,32.84
2022-12-18T00:35:41.694Z,31.94
2022-12-18T00:38:08.076Z,32.87
2022-12-18T00:40:34.327Z,32.65
2022-12-18T00:43:00.574Z,32.93
2022-12-18T00:45:26.867Z,32.70
2022-12-18T00:47:53.261Z,32.33
2022-12-18T00:50:19.511Z,32.13
2022-12-18T00:52:45.749Z,32.99
2022-12-18T00:55:11.993Z,32.86
2022-12-18T00:57:38.272Z,32.76
2022-12-18T01:00:04.873Z,32.74
2022-12-18T01:02:31.208Z,33.39
2022-12-18T01:04:57.559Z,33.18
2022-12-18T01:07:23.838Z,33.07
2022-12-18T01:09:50.097Z,33.06
2022-12-18T01:12:16.361Z,33.51
2022-12-18T01:14:42.617Z,32.59
2022-12-18T01:17:08.858Z,32.77
2022-12-18T01:19:35.128Z,32.80
2022-12-18T01:22:01.388Z,33.88
2022-12-18T01:24:27.682Z,33.37
2022-12-18T01:26:53.935Z,33.11
2022-12-18T01:29:20.377Z,33.71
2022-12-18T01:31:46.766Z,33.86
2022-12-18T01:34:13.169Z,33.82
2022-12-18T01:36:39.452Z,33.54
2022-12-18T01:39:05.716Z,33.28
2022-12-18T01:41:31.951Z,32.29
2022-12-18T01:43:58.302Z,32.96
2022-12-18T01:46:24.604Z,33.65
2022-12-18T01:48:50.858Z,33.72
2022-12-18T01:51:17.113Z,34.36
2022-12-18T01:53:43.376Z,34.58
2022-12-18T01:56:10.248Z,35.22
2022-12-18T01:58:36.535Z,35.04
2022-12-18T02:01:02.806Z,34.39
2022-12-18T02:03:29.168Z,33.24
2022-12-18T02:05:55.569Z,33.89
2022-12-18T02:08:21.871Z,32.51
2022-12-18T02:10:48.156Z,31.97
2022-12-18T02:13:14.430Z,32.58
2022-12-18T02:15:40.687Z,33.29
2022-12-18T02:18:06.960Z,32.81
2022-12-18T02:20:33.222Z,33.02
2022-12-18T02:22:59.495Z,32.42
2022-12-18T02:25:25.760Z,31.97
2022-12-18T02:27:52.201Z,32.04
2022-12-18T02:30:18.701Z,33.23
2022-12-18T02:32:44.961Z,32.83
2022-12-18T02:35:11.241Z,33.14
2022-12-18T02:37:37.495Z,32.58
2022-12-18T02:40:03.741Z,31.61
2022-12-18T02:42:30.002Z,32.17
2022-12-18T02:44:56.264Z,32.34
2022-12-18T02:47:22.513Z,32.15
2022-12-18T02:49:48.793Z,31.19
2022-12-18T02:52:15.040Z,31.47
2022-12-18T02:54:41.313Z,32.10
2022-12-18T02:57:07.576Z,31.74
2022-12-18T02:59:33.855Z,31.46
2022-12-18T03:02:00.497Z,32.58
2022-12-18T03:04:26.887Z,31.29
2022-12-18T03:06:53.140Z,31.34
2022-12-18T03:09:19.390Z,32.99
2022-12-18T03:11:45.642Z,31.87
2022-12-18T03:14:11.903Z,31.46
2022-12-18T03:16:38.185Z,32.13
2022-12-18T03:19:04.482Z,31.60
2022-12-18T03:21:30.747Z,31.59
2022-12-18T03:23:57.010Z,31.95
2022-12-18T03:26:23.288Z,31.77
2022-12-18T03:28:49.572Z,31.29
2022-12-18T03:31:15.917Z,32.84
2022-12-18T03:33:42.609Z,32.15
2022-12-18T03:36:09.362Z,31.34
2022-12-18T03:38:35.611Z,31.06
2022-12-18T03:41:01.879Z,31.50
2022-12-18T03:43:28.187Z,31.46
2022-12-18T03:45:54.459Z,32.12
2022-12-18T03:48:20.713Z,32.49
2022-12-18T03:50:46.980Z,32.31
2022-12-18T03:53:13.246Z,32.99
2022-12-18T03:55:39.501Z,32.65
2022-12-18T03:58:05.759Z,32.76
2022-12-18T04:00:32.020Z,32.95
2022-12-18T04:02:58.272Z,33.80
2022-12-18T04:05:24.521Z,33.05
2022-12-18T04:07:50.817Z,32.36
2022-12-18T04:10:17.087Z,33.50
2022-12-18T04:12:43.396Z,32.96
2022-12-18T04:15:09.656Z,33.05
2022-12-18T04:17:35.920Z,32.56
2022-12-18T04:20:02.203Z,33.29
2022-12-18T04:22:28.481Z,33.06
2022-12-18T04:24:54.757Z,33.65
2022-12-18T04:27:21.013Z,33.31
2022-12-18T04:29:47.284Z,32.64
2022-12-18T04:32:13.564Z,33.13
2022-12-18T04:34:39.834Z,33.72
2022-12-18T04:37:06.109Z,33.76
2022-12-18T04:39:32.367Z,32.93
2022-12-18T04:41:58.618Z,33.21
2022-12-18T04:44:24.893Z,33.27
2022-12-18T04:46:51.196Z,33.10
2022-12-18T04:49:17.529Z,33.78
2022-12-18T04:51:43.782Z,32.76
2022-12-18T04:54:10.028Z,33.69
2022-12-18T04:56:36.291Z,32.58
2022-12-18T04:59:02.559Z,32.67
2022-12-18T05:01:34.374Z,33.01
2022-12-18T05:04:01.235Z,32.10
2022-12-18T05:06:27.510Z,32.94
2022-12-18T05:08:53.780Z,32.54
2022-12-18T05:11:20.058Z,31.97
2022-12-18T05:13:46.370Z,31.94
2022-12-18T05:16:12.691Z,32.44
2022-12-18T05:18:39.004Z,31.44
2022-12-18T05:21:05.258Z,32.19
2022-12-18T05:23:31.521Z,31.92
2022-12-18T05:25:57.789Z,32.00
2022-12-18T05:28:24.091Z,31.26
2022-12-18T05:30:50.378Z,31.21
2022-12-18T05:33:16.664Z,31.43
2022-12-18T05:35:42.942Z,31.00
2022-12-18T05:38:09.220Z,31.90
2022-12-18T05:40:35.491Z,32.84
2022-12-18T05:43:01.783Z,32.38
2022-12-18T05:45:28.042Z,31.69
2022-12-18T05:47:54.316Z,31.18
2022-12-18T05:50:21.245Z,31.74
2022-12-18T05:52:47.501Z,31.51
2022-12-18T05:55:13.748Z,31.75
2022-12-18T05:57:40.005Z,31.37
2022-12-18T06:00:06.278Z,31.90
2022-12-18T06:02:32.594Z,32.36
2022-12-18T06:04:58.888Z,31.29
2022-12-18T06:07:25.141Z,32.05
2022-12-18T06:09:51.415Z,32.18
2022-12-18T06:12:17.694Z,31.95
2022-12-18T06:14:43.952Z,31.79
2022-12-18T06:17:10.210Z,31.29
2022-12-18T06:19:36.480Z,30.60
2022-12-18T06:22:02.727Z,30.35
2022-12-18T06:24:28.994Z,30.91
2022-12-18T06:26:55.518Z,30.66
2022-12-18T06:29:21.763Z,29.58
2022-12-18T06:31:48.083Z,30.48
2022-12-18T06:34:14.446Z,30.54
2022-12-18T06:36:40.739Z,30.75
2022-12-18T06:39:06.983Z,30.79
2022-12-18T06:41:33.653Z,30.22
2022-12-18T06:44:00.294Z,29.88
2022-12-18T06:46:26.677Z,30.12
2022-12-18T06:48:52.963Z,31.20
2022-12-18T06:51:19.222Z,30.83
2022-12-18T06:53:45.501Z,30.19
2022-12-18T06:56:11.776Z,29.99
2022-12-18T06:58:38.044Z,29.90
2022-12-18T07:01:04.362Z,30.42
2022-12-18T07:03:30.645Z,30.00
2022-12-18T07:05:56.904Z,30.58
2022-12-18T07:08:23.162Z,29.62
2022-12-18T07:10:52.904Z,30.72
2022-12-18T07:13:22.271Z,29.99
2022-12-18T07:15:48.556Z,30.05
2022-12-18T07:18:14.827Z,30.71
2022-12-18T07:20:41.618Z,30.67
2022-12-18T07:23:07.901Z,30.35
2022-12-18T07:25:34.177Z,30.58
2022-12-18T07:28:00.432Z,30.17
2022-12-18T07:30:26.674Z,30.30
2022-12-18T07:32:52.930Z,30.25
2022-12-18T07:35:23.373Z,29.98
2022-12-18T07:37:51.145Z,30.02
2022-12-18T07:40:17.413Z,30.79
2022-12-18T07:42:43.700Z,31.43
2022-12-18T07:45:09.965Z,31.13
2022-12-18T07:47:36.252Z,30.99
2022-12-18T07:50:02.502Z,31.44
2022-12-18T07:52:28.756Z,32.89
2022-12-18T07:54:55.036Z,33.73
2022-12-18T07:57:48.809Z,32.44
2022-12-18T08:00:07.548Z,30.91
2022-12-18T08:02:33.989Z,31.30
2022-12-18T08:05:01.021Z,30.92
2022-12-18T08:07:27.310Z,30.21
2022-12-18T08:09:53.578Z,30.97
2022-12-18T08:12:19.970Z,30.94
2022-12-18T08:14:46.216Z,31.83
2022-12-18T08:17:12.469Z,30.78
2022-12-18T08:19:38.769Z,31.12
2022-12-18T08:22:05.042Z,30.60
2022-12-18T08:24:31.325Z,31.03
2022-12-18T08:27:27.974Z,31.24
2022-12-18T08:29:43.829Z,30.68
2022-12-18T08:32:10.103Z,30.68
2022-12-18T08:34:36.368Z,31.11
2022-12-18T08:37:02.641Z,31.81
2022-12-18T08:39:28.914Z,31.85
2022-12-18T08:41:55.223Z,31.24
2022-12-18T08:44:21.504Z,31.47
2022-12-18T08:46:47.770Z,30.90
2022-12-18T08:49:14.107Z,31.63
2022-12-18T08:51:40.350Z,32.35
2022-12-18T08:54:06.730Z,31.10
2022-12-18T08:56:33.067Z,31.12
2022-12-18T08:58:59.323Z,30.59
2022-12-18T09:01:25.974Z,31.12
2022-12-18T09:03:52.453Z,31.36
2022-12-18T09:06:19.176Z,30.12
2022-12-18T09:08:45.713Z,30.66
2022-12-18T09:11:12.010Z,31.22
2022-12-18T09:13:38.585Z,30.81
2022-12-18T09:16:05.131Z,30.62
2022-12-18T09:18:31.377Z,30.06
2022-12-18T09:24:08.864Z,29.57
2022-12-18T09:26:35.469Z,30.83
2022-12-18T09:29:01.777Z,29.85
2022-12-18T09:31:28.050Z,30.79
2022-12-18T09:33:54.462Z,30.55
2022-12-18T09:36:20.729Z,29.40
2022-12-18T09:38:48.089Z,30.05
2022-12-18T09:41:14.353Z,30.30
2022-12-18T09:43:40.619Z,30.62
2022-12-18T09:46:06.922Z,30.03
2022-12-18T09:48:33.192Z,30.01
2022-12-18T09:50:59.452Z,29.68
2022-12-18T09:53:25.771Z,30.24
2022-12-18T09:55:52.041Z,29.83
2022-12-18T09:58:18.312Z,29.47
2022-12-18T10:00:44.578Z,30.02
2022-12-18T10:03:12.188Z,29.55
2022-12-18T10:05:38.572Z,30.28
2022-12-18T10:08:04.846Z,30.73
2022-12-18T10:10:31.105Z,30.54
2022-12-18T10:13:04.058Z,29.04
2022-12-18T10:15:30.932Z,29.05
2022-12-18T10:17:57.297Z,29.09
2022-12-18T10:20:23.577Z,28.48
2022-12-18T10:22:49.872Z,27.81
2022-12-18T10:25:16.121Z,27.99
2022-12-18T10:27:42.382Z,27.25
2022-12-18T10:30:10.432Z,27.60
2022-12-18T10:32:36.735Z,27.62
2022-12-18T10:35:03.029Z,27.47
2022-12-18T10:37:29.279Z,26.95
2022-12-18T10:39:55.552Z,25.92
2022-12-18T10:42:21.805Z,26.44
2022-12-18T10:44:48.067Z,25.99
2022-12-18T10:47:14.422Z,25.96
2022-12-18T10:49:40.808Z,26.43
2022-12-18T10:52:07.098Z,26.23
2022-12-18T10:54:33.526Z,26.02
2022-12-18T10:56:59.787Z,25.65
2022-12-18T10:59:26.054Z,25.52
2022-12-18T11:01:52.451Z,24.69
2022-12-18T11:04:18.831Z,25.33
2022-12-18T11:06:45.095Z,25.12
2022-12-18T11:09:12.848Z,24.61
2022-12-18T11:11:40.833Z,25.78
2022-12-18T11:14:07.102Z,25.31
2022-12-18T11:16:33.460Z,24.86
2022-12-18T11:18:59.720Z,24.55
2022-12-18T11:21:25.976Z,24.50
2022-12-18T11:23:52.266Z,24.30
2022-12-18T11:26:18.546Z,24.28
2022-12-18T11:28:45.291Z,25.08
2022-12-18T11:31:12.112Z,24.13
2022-12-18T11:33:38.389Z,24.63
2022-12-18T11:36:04.660Z,24.21
2022-12-18T11:38:30.948Z,24.95
2022-12-18T11:40:57.264Z,24.32
2022-12-18T11:43:23.552Z,24.60
2022-12-18T11:45:49.879Z,23.55
2022-12-18T11:48:16.153Z,23.48
2022-12-18T11:50:42.427Z,24.59
2022-12-18T11:53:08.694Z,23.98
2022-12-18T11:55:34.975Z,23.95
2022-12-18T11:58:01.669Z,24.96
2022-12-18T12:00:27.959Z,24.89
2022-12-18T12:02:54.235Z,24.59
2022-12-18T12:05:20.542Z,25.65
2022-12-18T12:07:46.813Z,25.12
2022-12-18T12:10:13.069Z,25.03
2022-12-18T12:12:41.824Z,25.74
2022-12-18T12:15:11.501Z,25.57
2022-12-18T12:17:37.763Z,25.32
2022-12-18T12:20:04.022Z,25.30
2022-12-18T12:22:30.275Z,25.05
2022-12-18T12:24:56.529Z,24.33
2022-12-18T12:27:22.785Z,23.97
2022-12-18T12:29:49.050Z,23.74
2022-12-18T12:32:15.351Z,23.75
2022-12-18T12:34:41.645Z,23.93
2022-12-18T12:37:07.906Z,23.67
2022-12-18T12:39:34.176Z,24.11
2022-12-18T12:42:00.437Z,23.90
2022-12-18T12:44:26.703Z,23.65
2022-12-18T12:46:52.965Z,24.67
2022-12-18T12:49:19.297Z,24.16
2022-12-18T12:51:45.808Z,24.37
2022-12-18T12:54:13.326Z,24.59
2022-12-18T12:56:39.579Z,24.89
2022-12-18T12:59:05.847Z,24.32
2022-12-18T13:01:32.937Z,24.37
2022-12-18T13:04:00.149Z,23.86
2022-12-18T13:06:26.420Z,24.00
2022-12-18T13:08:52.694Z,23.91
2022-12-18T13:11:18.956Z,23.59
2022-12-18T13:13:46.443Z,24.60
2022-12-18T13:16:13.270Z,24.57
2022-12-18T13:18:39.952Z,23.86
2022-12-18T13:21:07.609Z,24.06
2022-12-18T13:23:33.885Z,24.87
2022-12-18T13:26:00.325Z,24.22
2022-12-18T13:28:26.706Z,23.83
2022-12-18T13:30:53.767Z,24.07
2022-12-18T13:33:23.415Z,24.12
2022-12-18T13:35:49.724Z,23.85
2022-12-18T13:38:16.142Z,24.33
2022-12-18T13:40:43.735Z,23.58
2022-12-18T13:43:10.322Z,23.30
2022-12-18T13:45:37.627Z,23.20
2022-12-18T13:48:03.996Z,23.65
2022-12-18T13:50:36.117Z,23.88
2022-12-18T13:53:02.720Z,24.27
2022-12-18T13:55:29.073Z,23.36
2022-12-18T13:57:55.334Z,23.34
2022-12-18T14:00:22.535Z,22.48
2022-12-18T14:02:49.095Z,23.59
2022-12-18T14:05:15.390Z,24.12
2022-12-18T14:07:41.881Z,24.04
2022-12-18T14:10:41.836Z,24.25
2022-12-18T14:12:56.353Z,24.35
2022-12-18T14:15:22.924Z,24.88
2022-12-18T14:17:49.294Z,24.89
2022-12-18T14:20:15.550Z,24.74
2022-12-18T14:22:41.815Z,24.34
2022-12-18T14:25:08.059Z,24.96
2022-12-18T14:27:34.336Z,24.93
2022-12-18T14:30:00.588Z,25.16
2022-12-18T14:32:26.837Z,26.10
2022-12-18T14:34:53.128Z,26.62
2022-12-18T14:37:19.401Z,26.86
2022-12-18T14:39:45.662Z,27.06
2022-12-18T14:42:11.922Z,27.47
2022-12-18T14:44:50.648Z,27.27
2022-12-18T14:47:24.415Z,28.34
2022-12-18T14:49:50.774Z,28.59
2022-12-18T14:52:17.124Z,27.67
2022-12-18T14:54:43.377Z,28.66
2022-12-18T14:57:09.641Z,28.50
2022-12-18T14:59:36.642Z,29.68
2022-12-18T15:02:03.128Z,29.02
2022-12-18T15:04:30.569Z,29.60
2022-12-18T15:06:56.819Z,30.43
2022-12-18T15:09:23.078Z,29.60
2022-12-18T15:11:49.392Z,29.44
2022-12-18T15:14:15.845Z,28.68
2022-12-18T15:16:46.142Z,28.53
2022-12-18T15:19:12.604Z,28.92
2022-12-18T15:21:38.879Z,29.37
2022-12-18T15:24:05.222Z,30.02
2022-12-18T15:26:31.471Z,29.78
2022-12-18T15:28:57.752Z,31.26
2022-12-18T15:31:24.112Z,32.39
2022-12-18T15:33:50.453Z,32.06
2022-12-18T15:36:16.716Z,31.32
2022-12-18T15:38:45.267Z,31.28
2022-12-18T15:41:14.200Z,31.27
2022-12-18T15:43:41.062Z,31.71
2022-12-18T15:46:07.746Z,31.50
2022-12-18T15:48:34.044Z,32.60
2022-12-18T15:51:00.322Z,31.77
2022-12-18T15:53:26.578Z,29.98
2022-12-18T15:55:56.542Z,32.29
2022-12-18T15:58:27.076Z,34.51
2022-12-18T16:00:53.343Z,35.89
2022-12-18T16:03:19.733Z,37.03
2022-12-18T16:05:46.161Z,34.13
2022-12-18T16:08:12.450Z,33.28
2022-12-18T16:10:38.720Z,34.59
2022-12-18T16:13:05.001Z,32.55
2022-12-18T16:15:31.307Z,33.00
2022-12-18T16:17:57.589Z,32.42
2022-12-18T16:20:23.858Z,30.97
2022-12-18T16:22:50.138Z,31.21
2022-12-18T16:25:16.404Z,31.52
2022-12-18T16:27:42.693Z,30.91
2022-12-18T16:30:10.346Z,31.06
2022-12-18T16:32:36.614Z,31.28
2022-12-18T16:35:02.904Z,31.00
2022-12-18T16:37:29.266Z,32.49
2022-12-18T16:39:55.565Z,31.94
2022-12-18T16:42:21.839Z,32.75
2022-12-18T16:44:48.138Z,33.26
2022-12-18T16:47:15.050Z,32.68
2022-12-18T16:49:41.787Z,32.77
2022-12-18T16:52:08.106Z,33.46
2022-12-18T16:54:34.360Z,33.28
2022-12-18T16:57:00.627Z,33.40
2022-12-18T16:59:26.983Z,32.71
2022-12-18T17:01:54.366Z,32.13
2022-12-18T17:04:20.722Z,33.92
2022-12-18T17:06:47.004Z,34.63
2022-12-18T17:09:13.302Z,34.18
2022-12-18T17:11:39.568Z,34.56
2022-12-18T17:14:05.907Z,34.33
2022-12-18T17:16:32.230Z,33.62
2022-12-18T17:18:59.795Z,33.55
2022-12-18T17:21:26.135Z,33.13
2022-12-18T17:23:52.410Z,33.25
2022-12-18T17:26:18.696Z,33.62
2022-12-18T17:28:45.026Z,35.15
2022-12-18T17:31:11.478Z,38.14
2022-12-18T17:33:38.210Z,43.91
2022-12-18T17:36:04.731Z,34.15
2022-12-18T17:38:30.994Z,32.45
2022-12-18T17:40:57.293Z,33.57
2022-12-18T17:43:23.545Z,34.96
2022-12-18T17:45:49.809Z,37.77
2022-12-18T17:48:16.077Z,38.84
2022-12-18T17:50:42.357Z,41.07
2022-12-18T17:53:08.633Z,39.02
2022-12-18T17:55:34.916Z,41.27
2022-12-18T17:58:01.247Z,42.47
2022-12-18T18:00:27.608Z,40.53
2022-12-18T18:02:54.059Z,39.16
2022-12-18T18:05:20.400Z,35.55
2022-12-18T18:07:47.870Z,34.93
2022-12-18T18:10:14.129Z,39.91
2022-12-18T18:12:40.379Z,39.66
2022-12-18T18:15:06.756Z,37.79
2022-12-18T18:17:33.019Z,37.21
2022-12-18T18:19:59.293Z,35.26
2022-12-18T18:22:25.569Z,35.57
2022-12-18T18:24:52.223Z,34.98
2022-12-18T18:27:18.498Z,35.88
2022-12-18T18:29:44.800Z,34.58
2022-12-18T18:32:11.046Z,35.59
2022-12-18T18:34:37.321Z,35.45
2022-12-18T18:37:03.948Z,35.68
2022-12-18T18:39:30.237Z,35.74
2022-12-18T18:41:56.502Z,35.82
2022-12-18T18:44:24.868Z,35.34
2022-12-18T18:46:52.523Z,35.81
2022-12-18T18:49:18.795Z,35.06
2022-12-18T18:51:45.081Z,35.99
2022-12-18T18:54:11.352Z,37.43
2022-12-18T18:59:25.027Z,38.96
2022-12-18T19:01:58.545Z,43.25
2022-12-18T19:04:24.942Z,44.12
2022-12-18T19:06:51.225Z,41.01
2022-12-18T19:09:18.072Z,38.66
2022-12-18T19:11:44.322Z,37.31
2022-12-18T19:14:10.724Z,37.88
2022-12-18T19:16:37.054Z,38.62
2022-12-18T19:19:03.581Z,39.45
2022-12-18T19:21:31.141Z,39.87
2022-12-18T19:23:59.695Z,39.76
2022-12-18T19:26:28.234Z,40.48
2022-12-18T19:28:55.048Z,40.72
2022-12-18T19:31:25.413Z,40.30
2022-12-18T19:33:53.426Z,40.23
2022-12-18T19:36:19.713Z,42.67
2022-12-18T19:38:46.148Z,43.60
2022-12-18T19:41:12.608Z,44.24
2022-12-18T19:43:40.144Z,43.19
2022-12-18T19:46:06.416Z,40.40
2022-12-18T19:48:32.751Z,38.40
2022-12-18T19:50:59.025Z,38.10
2022-12-18T19:53:25.401Z,39.50
2022-12-18T19:55:51.685Z,47.12
2022-12-18T19:58:17.932Z,46.81
2022-12-18T20:00:46.804Z,41.67
2022-12-18T20:03:24.259Z,40.93
2022-12-18T20:05:53.550Z,43.03
2022-12-18T20:08:19.806Z,43.89
2022-12-18T20:10:46.074Z,41.47
2022-12-18T20:13:12.421Z,39.39
2022-12-18T20:15:45.146Z,41.36
2022-12-18T20:18:11.841Z,43.03
2022-12-18T20:20:38.272Z,41.52
2022-12-18T20:23:04.563Z,39.38
2022-12-18T20:25:30.812Z,39.86
2022-12-18T20:27:57.069Z,37.67
2022-12-18T20:30:23.885Z,38.77
2022-12-18T20:32:50.148Z,40.30
2022-12-18T20:35:16.441Z,40.65
2022-12-18T20:37:46.085Z,40.80
2022-12-18T20:40:15.066Z,39.78
2022-12-18T20:42:41.342Z,38.66
2022-12-18T20:45:07.594Z,39.41
2022-12-18T20:47:33.842Z,43.64
2022-12-18T20:50:00.106Z,44.02
2022-12-18T20:52:26.423Z,42.59
2022-12-18T20:54:52.693Z,41.60
2022-12-18T20:57:18.962Z,38.76
2022-12-18T20:59:48.329Z,39.29
2022-12-18T21:02:14.998Z,39.15
2022-12-18T21:04:41.357Z,40.04
2022-12-18T21:07:07.631Z,39.73
2022-12-18T21:09:38.056Z,39.75
2022-12-18T21:12:04.862Z,38.60
2022-12-18T21:14:31.110Z,36.96
2022-12-18T21:16:57.442Z,36.75
2022-12-18T21:19:23.806Z,37.50
2022-12-18T21:21:50.106Z,36.68
2022-12-18T21:24:16.415Z,36.52
2022-12-18T21:26:45.768Z,35.51
2022-12-18T21:29:12.652Z,38.20
2022-12-18T21:31:38.942Z,40.21
2022-12-18T21:34:05.261Z,39.54
2022-12-18T21:36:31.546Z,37.34
2022-12-18T21:38:58.368Z,36.95
2022-12-18T21:41:24.774Z,36.98
2022-12-18T21:43:51.330Z,36.88
2022-12-18T21:46:17.678Z,36.91
2022-12-18T21:48:43.972Z,36.88
2022-12-18T21:51:10.351Z,37.20
2022-12-18T21:53:36.689Z,36.69
2022-12-18T21:56:02.964Z,35.80
2022-12-18T21:58:29.223Z,35.75
2022-12-18T22:00:55.473Z,35.59
2022-12-18T22:03:21.892Z,35.53
2022-12-18T22:05:50.581Z,35.69
2022-12-18T22:08:33.790Z,35.62
2022-12-18T22:11:00.118Z,36.69
2022-12-18T22:13:26.404Z,37.14
2022-12-18T22:15:52.680Z,36.91
2022-12-18T22:18:18.962Z,37.36
2022-12-18T22:20:45.267Z,36.96
2022-12-18T22:23:11.529Z,36.19
2022-12-18T22:25:38.931Z,35.82
2022-12-18T22:28:06.100Z,35.46
2022-12-18T22:30:32.396Z,35.66
2022-12-18T22:32:59.205Z,35.25
2022-12-18T22:35:25.454Z,35.50
2022-12-18T22:37:51.703Z,36.22
2022-12-18T22:40:22.254Z,35.64
2022-12-18T22:42:50.517Z,36.08
2022-12-18T22:45:18.818Z,35.72
2022-12-18T22:47:45.103Z,35.80
2022-12-18T22:50:11.355Z,35.21
2022-12-18T22:52:37.631Z,35.66
2022-12-18T22:55:03.913Z,35.54
2022-12-18T22:57:32.735Z,34.71
2022-12-18T23:00:00.086Z,35.10
2022-12-18T23:02:26.520Z,35.22
2022-12-18T23:04:52.930Z,34.96
2022-12-18T23:07:19.198Z,36.02
2022-12-18T23:09:45.578Z,35.43
2022-12-18T23:12:13.486Z,35.14
2022-12-18T23:14:39.753Z,37.33
2022-12-18T23:17:06.010Z,39.93
2022-12-18T23:19:32.278Z,37.35
2022-12-18T23:21:58.531Z,37.13
2022-12-18T23:24:24.767Z,38.32
2022-12-18T23:26:51.016Z,37.78
2022-12-18T23:29:17.285Z,37.15
2022-12-18T23:31:43.634Z,37.45
2022-12-18T23:34:10.076Z,35.75
2022-12-18T23:36:45.627Z,35.23
2022-12-18T23:39:15.488Z,35.18
2022-12-18T23:41:55.492Z,33.64
2022-12-18T23:44:21.765Z,34.33
2022-12-18T23:46:48.049Z,34.51
2022-12-18T23:49:14.305Z,34.95
2022-12-18T23:51:40.590Z,34.44
2022-12-18T23:54:06.842Z,34.15
2022-12-18T23:56:33.107Z,34.89
2022-12-18T23:58:59.373Z,34.23
